Time;durP1;ratioP1;P1;durP2;ratioP2;P2;SDS_P1;SDS_P2;PMS_P1;PMS_P2;Temp;Humidity;BMP_temperature;BMP_pressure;BME280_temperature;BME280_humidity;BME280_pressure;Samples;Min_cycle;Max_cycle;Signal;HPM_P1;HPM_P2
2023/07/27 00:01:59;;;;;;;8.88;4.32;;;;;;;11.37;100.00;100907.28;10406475;28;20096;-65
2023/07/27 00:06:59;;;;;;;9.55;5.45;;;;;;;11.36;100.00;100909.22;10449734;28;20040;-67
2023/07/27 00:12:00;;;;;;;10.05;5.07;;;;;;;11.34;100.00;100911.41;10414165;28;20374;-67
2023/07/27 00:17:00;;;;;;;11.48;5.75;;;;;;;11.29;100.00;100889.31;10425676;28;20040;-67
2023/07/27 00:22:01;;;;;;;9.93;4.47;;;;;;;11.32;100.00;100886.03;10438985;28;20036;-67
2023/07/27 00:27:02;;;;;;;13.38;5.78;;;;;;;11.19;100.00;100887.28;10439630;28;20471;-67
2023/07/27 00:32:02;;;;;;;9.07;4.97;;;;;;;11.20;100.00;100885.34;10408961;28;20036;-67
2023/07/27 00:37:03;;;;;;;10.10;5.75;;;;;;;11.11;100.00;100868.44;10426991;28;20048;-67
2023/07/27 00:42:04;;;;;;;12.30;6.65;;;;;;;11.13;100.00;100881.97;10428644;28;20053;-67
2023/07/27 00:47:05;;;;;;;13.82;6.97;;;;;;;11.15;100.00;100868.75;10423992;28;20041;-67
2023/07/27 00:52:07;;;;;;;13.52;6.78;;;;;;;11.15;100.00;100871.50;10425191;28;20047;-67
2023/07/27 00:57:08;;;;;;;14.77;7.28;;;;;;;11.11;100.00;100857.41;10420667;28;20041;-67
2023/07/27 01:02:08;;;;;;;14.45;6.97;;;;;;;11.12;100.00;100856.34;10444094;28;20060;-67
2023/07/27 01:07:09;;;;;;;13.45;6.75;;;;;;;11.06;100.00;100833.41;10442566;28;20047;-67
2023/07/27 01:12:33;;;;;;;16.10;8.07;;;;;;;11.07;100.00;100824.03;10412079;28;20040;-67
2023/07/27 01:17:44;;;;;;;13.43;6.50;;;;;;;11.16;100.00;100826.31;10414290;28;20040;-67
2023/07/27 01:23:12;;;;;;;16.25;7.75;;;;;;;11.29;100.00;100823.16;10431652;28;20045;-66
2023/07/27 01:28:22;;;;;;;14.40;7.15;;;;;;;11.35;100.00;100810.25;10454838;28;20056;-66
2023/07/27 01:33:32;;;;;;;13.63;7.22;;;;;;;11.43;100.00;100804.25;10425500;28;20535;-67
2023/07/27 01:38:32;;;;;;;17.27;7.50;;;;;;;11.59;100.00;100808.00;10419887;28;20036;-67
2023/07/27 01:43:33;;;;;;;15.75;7.15;;;;;;;11.65;100.00;100793.97;10424819;28;20096;-67
2023/07/27 01:48:34;;;;;;;12.80;6.90;;;;;;;11.71;100.00;100792.09;10417790;28;20052;-66
2023/07/27 01:53:35;;;;;;;12.23;6.28;;;;;;;11.70;100.00;100771.16;10422630;28;20037;-66
2023/07/27 01:58:36;;;;;;;10.85;6.15;;;;;;;11.70;100.00;100771.97;10380127;28;20045;-66
2023/07/27 02:03:37;;;;;;;12.45;6.82;;;;;;;11.50;100.00;100720.25;10395693;28;20048;-66
2023/07/27 02:08:37;;;;;;;13.50;6.75;;;;;;;11.82;100.00;100755.22;10397462;28;20038;-67
2023/07/27 02:13:45;;;;;;;11.70;6.22;;;;;;;11.90;100.00;100760.25;10390662;28;20040;-67
2023/07/27 02:18:46;;;;;;;11.18;5.70;;;;;;;11.87;100.00;100749.75;10381700;28;20071;-66
2023/07/27 02:23:46;;;;;;;11.88;5.93;;;;;;;11.81;100.00;100728.75;10391998;28;20079;-66
2023/07/27 02:28:47;;;;;;;11.15;6.20;;;;;;;11.99;100.00;100745.97;10397591;28;20045;-67
2023/07/27 02:33:47;;;;;;;17.17;8.38;;;;;;;12.03;100.00;100739.66;10412043;28;20134;-67
2023/07/27 02:38:48;;;;;;;14.57;6.10;;;;;;;12.06;100.00;100736.34;10429302;28;20048;-66
2023/07/27 02:43:49;;;;;;;11.90;6.32;;;;;;;12.10;100.00;100728.38;10414393;28;20048;-66
2023/07/27 02:48:49;;;;;;;15.00;7.03;;;;;;;12.10;100.00;100731.16;10370083;28;20037;-66
2023/07/27 02:53:50;;;;;;;11.60;6.63;;;;;;;12.14;100.00;100729.50;10397430;28;20407;-66
2023/07/27 02:58:50;;;;;;;14.52;8.07;;;;;;;12.13;100.00;100721.50;10375618;28;20060;-67
2023/07/27 03:03:52;;;;;;;12.55;6.90;;;;;;;12.02;100.00;100706.81;10391185;28;20075;-67
2023/07/27 03:08:52;;;;;;;12.05;6.30;;;;;;;12.05;100.00;100703.50;10353518;28;20045;-66
2023/07/27 03:13:56;;;;;;;12.68;5.90;;;;;;;12.15;100.00;100698.03;10390408;28;20049;-66
2023/07/27 03:18:57;;;;;;;12.00;6.07;;;;;;;12.18;100.00;100688.41;10371149;28;20045;-66
2023/07/27 03:23:57;;;;;;;10.75;6.07;;;;;;;12.27;100.00;100679.31;10353244;28;20045;-69
2023/07/27 03:28:58;;;;;;;11.15;6.38;;;;;;;12.37;100.00;100675.78;10348024;28;20547;-67
2023/07/27 03:33:58;;;;;;;14.63;6.85;;;;;;;12.43;100.00;100669.16;10371232;28;20125;-67
2023/07/27 03:38:59;;;;;;;11.80;6.88;;;;;;;12.50;100.00;100668.91;10369128;28;20153;-66
2023/07/27 03:44:00;;;;;;;10.93;5.93;;;;;;;12.47;100.00;100652.91;10372516;28;20116;-66
2023/07/27 03:49:00;;;;;;;11.77;5.72;;;;;;;12.61;100.00;100659.56;10329948;28;20031;-66
2023/07/27 03:54:01;;;;;;;12.25;6.00;;;;;;;12.64;100.00;100652.66;10392610;28;20041;-66
2023/07/27 03:59:01;;;;;;;12.27;5.70;;;;;;;12.64;100.00;100647.94;10425423;28;20128;-67
2023/07/27 04:04:02;;;;;;;12.57;5.55;;;;;;;12.66;100.00;100651.25;10423546;28;20045;-67
2023/07/27 04:09:02;;;;;;;12.05;5.93;;;;;;;12.55;100.00;100622.00;10390959;28;20052;-66
2023/07/27 04:14:03;;;;;;;12.95;5.18;;;;;;;12.72;100.00;100638.31;10401950;28;20374;-67
2023/07/27 04:19:04;;;;;;;8.60;5.57;;;;;;;12.77;100.00;100629.19;10387517;28;20065;-67
2023/07/27 04:24:04;;;;;;;14.30;5.38;;;;;;;12.76;100.00;100616.50;10401686;28;20038;-66
2023/07/27 04:29:05;;;;;;;13.65;6.38;;;;;;;12.89;100.00;100626.97;10418038;28;20037;-66
2023/07/27 04:34:05;;;;;;;9.43;5.57;;;;;;;12.88;100.00;100614.28;10419582;28;21843;-66
2023/07/27 04:39:06;;;;;;;13.50;5.50;;;;;;;12.99;100.00;100626.97;10399687;28;20054;-66
2023/07/27 04:44:07;;;;;;;12.13;6.55;;;;;;;13.02;100.00;100614.53;10425724;28;20044;-66
2023/07/27 04:49:07;;;;;;;11.27;5.70;;;;;;;13.00;100.00;100606.56;10408258;28;20045;-66
2023/07/27 04:54:08;;;;;;;17.58;7.32;;;;;;;12.98;100.00;100581.13;10404127;28;20029;-66
2023/07/27 04:59:08;;;;;;;9.77;6.75;;;;;;;13.06;100.00;100588.00;10394216;28;20056;-66
2023/07/27 05:04:09;;;;;;;12.00;6.60;;;;;;;13.12;100.00;100587.75;10394943;28;20037;-65
2023/07/27 05:09:09;;;;;;;12.05;6.78;;;;;;;13.19;100.00;100581.06;10421644;28;20542;-65
2023/07/27 05:14:10;;;;;;;11.02;6.85;;;;;;;13.16;100.00;100571.41;10430682;28;20172;-65
2023/07/27 05:19:11;;;;;;;10.48;6.50;;;;;;;13.18;100.00;100577.50;10438298;28;20224;-65
2023/07/27 05:24:11;;;;;;;13.52;6.43;;;;;;;13.14;100.00;100559.81;10432151;28;20092;-65
2023/07/27 05:29:11;;;;;;;11.60;6.75;;;;;;;13.18;100.00;100549.84;10421582;28;20052;-66
2023/07/27 05:34:12;;;;;;;15.30;7.57;;;;;;;13.26;100.00;100553.97;10416861;28;20052;-65
2023/07/27 05:39:13;;;;;;;12.18;6.82;;;;;;;13.32;100.00;100563.94;10415967;28;20414;-64
2023/07/27 05:44:13;;;;;;;10.52;6.65;;;;;;;13.30;100.00;100552.34;10435512;28;20045;-65
2023/07/27 05:49:14;;;;;;;13.48;7.13;;;;;;;13.37;100.00;100552.88;10401736;28;20042;-65
2023/07/27 05:54:14;;;;;;;12.57;7.43;;;;;;;13.40;100.00;100543.22;10411578;28;20110;-65
2023/07/27 05:59:15;;;;;;;15.70;7.97;;;;;;;13.46;100.00;100531.84;10416538;28;20041;-64
2023/07/27 06:04:16;;;;;;;15.23;7.10;;;;;;;13.61;100.00;100535.66;10407851;28;20042;-65
2023/07/27 06:09:17;;;;;;;14.38;7.38;;;;;;;13.67;100.00;100540.06;10427846;28;20041;-65
2023/07/27 06:14:18;;;;;;;13.73;7.10;;;;;;;13.74;100.00;100540.56;10415522;28;20049;-64
2023/07/27 06:19:18;;;;;;;14.57;7.05;;;;;;;13.80;100.00;100536.66;10437100;28;20041;-65
2023/07/27 06:24:19;;;;;;;13.57;6.50;;;;;;;13.79;100.00;100518.41;10404965;28;20048;-65
2023/07/27 06:29:19;;;;;;;14.68;6.88;;;;;;;13.85;100.00;100510.91;10429132;28;20061;-65
2023/07/27 06:34:20;;;;;;;12.90;7.72;;;;;;;14.09;100.00;100499.97;10434288;28;20495;-65
2023/07/27 06:39:20;;;;;;;11.40;7.38;;;;;;;14.22;100.00;100487.41;10414008;28;20393;-64
2023/07/27 06:44:21;;;;;;;15.02;7.70;;;;;;;14.52;100.00;100480.81;10435776;28;20112;-65
2023/07/27 06:49:21;;;;;;;12.80;7.45;;;;;;;14.71;100.00;100483.72;10414483;28;20099;-65
2023/07/27 06:54:22;;;;;;;12.05;7.28;;;;;;;14.94;100.00;100482.09;10396668;28;20036;-65
2023/07/27 06:59:22;;;;;;;11.43;7.40;;;;;;;15.03;100.00;100465.69;10432488;28;20041;-65
2023/07/27 07:04:23;;;;;;;15.65;7.28;;;;;;;15.32;100.00;100471.97;10420876;28;20069;-65
2023/07/27 07:09:23;;;;;;;12.70;6.88;;;;;;;15.52;100.00;100465.34;10418091;28;20075;-65
2023/07/27 07:14:24;;;;;;;10.13;6.82;;;;;;;15.65;100.00;100469.34;10404892;28;20034;-65
2023/07/27 07:19:24;;;;;;;10.15;6.13;;;;;;;15.65;100.00;100452.69;10424979;28;20071;-66
2023/07/27 07:24:25;;;;;;;12.98;6.70;;;;;;;15.47;100.00;100459.84;10435320;28;20098;-65
2023/07/27 07:29:26;;;;;;;10.48;6.80;;;;;;;15.34;100.00;100457.81;10427238;28;20060;-65
2023/07/27 07:34:27;;;;;;;9.82;6.00;;;;;;;15.22;100.00;100452.69;10427437;28;20060;-66
2023/07/27 07:39:27;;;;;;;10.68;7.13;;;;;;;15.19;100.00;100456.03;10433705;28;20044;-65
2023/07/27 07:44:28;;;;;;;9.98;6.50;;;;;;;15.23;100.00;100453.50;10429051;28;20033;-66
2023/07/27 07:49:28;;;;;;;12.07;6.25;;;;;;;15.26;100.00;100433.50;10430063;28;20037;-65
2023/07/27 07:54:29;;;;;;;10.82;5.85;;;;;;;15.28;100.00;100434.84;10415783;28;20060;-66
2023/07/27 07:59:29;;;;;;;8.85;5.47;;;;;;;15.26;100.00;100419.66;10386630;28;20124;-66
2023/07/27 08:04:30;;;;;;;9.98;5.53;;;;;;;15.43;100.00;100402.50;10396271;28;20042;-66
2023/07/27 08:09:31;;;;;;;7.30;5.32;;;;;;;15.73;100.00;100390.19;10412876;28;20041;-66
2023/07/27 08:14:31;;;;;;;6.68;4.72;;;;;;;15.98;100.00;100393.66;10419963;28;20037;-64
2023/07/27 08:19:32;;;;;;;6.00;3.75;;;;;;;16.05;100.00;100372.72;10383769;28;20049;-66
2023/07/27 08:24:32;;;;;;;8.90;4.50;;;;;;;16.19;100.00;100369.16;10413779;28;20034;-65
2023/07/27 08:29:33;;;;;;;6.32;4.10;;;;;;;16.18;100.00;100376.66;10377254;28;20045;-66
2023/07/27 08:34:33;;;;;;;6.10;4.18;;;;;;;15.95;100.00;100370.09;10420377;28;20042;-66
2023/07/27 08:39:34;;;;;;;7.32;4.35;;;;;;;16.08;100.00;100363.78;10418261;28;20036;-66
2023/07/27 08:44:34;;;;;;;6.60;5.10;;;;;;;15.87;100.00;100316.09;10429803;28;20570;-66
2023/07/27 08:49:35;;;;;;;6.88;5.20;;;;;;;16.26;100.00;100355.69;10397628;28;20034;-66
2023/07/27 08:54:36;;;;;;;6.25;4.75;;;;;;;16.37;100.00;100348.00;10383516;28;20348;-66
2023/07/27 08:59:36;;;;;;;5.80;5.03;;;;;;;16.31;100.00;100353.66;10456003;28;20208;-66
2023/07/27 09:04:37;;;;;;;6.90;4.70;;;;;;;16.26;100.00;100350.97;10409875;28;20073;-66
2023/07/27 09:09:37;;;;;;;6.32;5.53;;;;;;;16.04;100.00;100342.47;10425042;28;20044;-65
2023/07/27 09:14:38;;;;;;;6.50;5.20;;;;;;;15.91;100.00;100339.34;10424787;28;20446;-66
2023/07/27 09:19:42;;;;;;;7.75;5.43;;;;;;;15.89;100.00;100335.22;10411494;28;20037;-66
2023/07/27 09:24:42;;;;;;;7.57;5.43;;;;;;;15.91;100.00;100325.47;10442118;28;20093;-66
2023/07/27 09:29:43;;;;;;;6.68;5.15;;;;;;;15.99;100.00;100323.94;10456896;28;20095;-66
2023/07/27 09:34:43;;;;;;;6.47;4.97;;;;;;;16.02;100.00;100319.72;10478700;28;20037;-66
2023/07/27 09:39:45;;;;;;;6.82;4.65;;;;;;;16.09;100.00;100311.84;10453400;28;20033;-65
2023/07/27 09:44:48;;;;;;;6.50;4.88;;;;;;;16.20;100.00;100304.97;10439452;28;20057;-66
2023/07/27 09:49:48;;;;;;;6.25;4.30;;;;;;;16.40;100.00;100311.28;10454961;28;20041;-65
2023/07/27 09:54:49;;;;;;;6.30;3.92;;;;;;;16.41;100.00;100301.81;10443756;28;20037;-66
2023/07/27 09:59:49;;;;;;;4.28;3.58;;;;;;;16.57;100.00;100308.72;10452547;28;20037;-67
2023/07/27 10:04:50;;;;;;;3.50;3.05;;;;;;;16.74;100.00;100299.75;10458106;28;20033;-66
2023/07/27 10:10:23;;;;;;;3.58;3.28;;;;;;;16.68;100.00;100296.25;10446769;28;20052;-65
2023/07/27 10:15:27;;;;;;;3.22;2.80;;;;;;;16.91;100.00;100294.41;10464017;28;20049;-66
2023/07/27 10:20:35;;;;;;;3.35;2.70;;;;;;;16.69;100.00;100303.47;10425589;28;20039;-66
2023/07/27 10:25:54;;;;;;;4.00;3.17;;;;;;;16.66;100.00;100297.69;10442648;28;20041;-66
2023/07/27 10:31:13;;;;;;;4.88;2.70;;;;;;;16.63;100.00;100293.56;10475544;28;20501;-66
2023/07/27 10:36:14;;;;;;;2.50;2.30;;;;;;;16.81;100.00;100283.50;10457438;28;20044;-65
2023/07/27 10:41:15;;;;;;;2.60;2.22;;;;;;;17.17;100.00;100284.69;10437537;28;20041;-65
2023/07/27 10:46:23;;;;;;;2.42;1.80;;;;;;;17.23;100.00;100277.88;10437867;28;20041;-65
2023/07/27 10:51:25;;;;;;;3.70;2.03;;;;;;;17.23;100.00;100269.53;10418593;28;20033;-65
2023/07/27 10:56:26;;;;;;;2.10;1.70;;;;;;;17.15;100.00;100283.03;10416422;28;1111921;-65
2023/07/27 11:01:30;;;;;;;1.98;1.30;;;;;;;17.08;100.00;100271.50;10457025;28;20043;-66
2023/07/27 11:06:30;;;;;;;1.80;1.60;;;;;;;16.91;100.00;100261.06;10435867;28;20079;-66
2023/07/27 11:11:31;;;;;;;2.25;1.92;;;;;;;16.79;100.00;100255.16;10467122;28;20087;-65
2023/07/27 11:16:33;;;;;;;2.20;2.00;;;;;;;16.88;100.00;100249.72;10440208;28;20048;-66
2023/07/27 11:21:35;;;;;;;4.68;2.40;;;;;;;16.88;100.00;100244.16;10453416;28;20037;-66
2023/07/27 11:26:37;;;;;;;3.17;2.88;;;;;;;16.99;100.00;100251.16;10434979;28;20552;-65
2023/07/27 11:31:38;;;;;;;3.10;2.80;;;;;;;17.02;100.00;100249.72;10440439;28;20037;-65
2023/07/27 11:36:38;;;;;;;4.03;3.38;;;;;;;17.03;100.00;100252.19;10442518;28;20048;-64
2023/07/27 11:41:41;;;;;;;4.60;3.38;;;;;;;16.97;100.00;100239.53;10417372;28;20033;-64
2023/07/27 11:46:46;;;;;;;4.72;4.20;;;;;;;16.90;100.00;100247.47;10435305;28;20107;-65
2023/07/27 11:51:47;;;;;;;4.90;4.40;;;;;;;16.85;100.00;100256.75;10407086;28;20075;-65
2023/07/27 11:56:51;;;;;;;5.88;4.25;;;;;;;16.69;100.00;100230.38;10455310;28;20052;-64
2023/07/27 12:01:52;;;;;;;5.57;4.40;;;;;;;16.83;100.00;100234.00;10435649;28;20052;-64
2023/07/27 12:06:53;;;;;;;6.25;5.65;;;;;;;17.07;100.00;100228.13;10434709;28;20053;-64
2023/07/27 12:11:53;;;;;;;5.75;4.68;;;;;;;17.22;100.00;100209.44;10423528;28;20074;-65
2023/07/27 12:16:53;;;;;;;5.30;4.80;;;;;;;17.49;100.00;100217.69;10433427;28;20048;-65
2023/07/27 12:21:54;;;;;;;4.60;4.20;;;;;;;17.63;100.00;100214.00;10476547;28;20093;-65
2023/07/27 12:26:54;;;;;;;4.85;4.45;;;;;;;17.99;100.00;100216.69;10463422;28;20053;-65
2023/07/27 12:31:55;;;;;;;4.18;3.78;;;;;;;18.11;100.00;100211.34;10452881;28;20048;-65
2023/07/27 12:36:55;;;;;;;4.53;4.13;;;;;;;18.25;100.00;100205.66;10478004;28;20039;-65
2023/07/27 12:41:56;;;;;;;4.35;3.95;;;;;;;18.27;100.00;100205.31;10481267;28;20040;-64
2023/07/27 12:46:56;;;;;;;4.63;3.97;;;;;;;18.33;100.00;100204.88;10461427;28;20067;-66
2023/07/27 12:51:57;;;;;;;3.05;2.75;;;;;;;18.45;100.00;100195.88;10477431;28;20037;-65
2023/07/27 12:56:58;;;;;;;3.65;3.33;;;;;;;18.65;100.00;100197.25;10441543;28;20052;-66
2023/07/27 13:01:58;;;;;;;2.97;2.67;;;;;;;18.76;100.00;100195.78;10465960;28;20536;-66
2023/07/27 13:06:58;;;;;;;3.40;3.10;;;;;;;19.09;100.00;100186.97;10458057;28;20037;-66
2023/07/27 13:11:59;;;;;;;2.33;2.13;;;;;;;19.47;100.00;100183.50;10474986;28;20048;-66
2023/07/27 13:16:59;;;;;;;1.88;1.58;;;;;;;19.54;100.00;100175.44;10479528;28;20045;-66
2023/07/27 13:22:00;;;;;;;11.40;2.90;;;;;;;19.73;100.00;100183.44;10436705;28;20428;-66
2023/07/27 13:27:02;;;;;;;1.00;0.90;;;;;;;19.70;100.00;100183.25;10460347;28;20033;-65
2023/07/27 13:32:02;;;;;;;1.50;1.20;;;;;;;19.87;100.00;100183.25;10441899;28;20110;-67
2023/07/27 13:37:03;;;;;;;1.02;0.93;;;;;;;20.20;100.00;100182.63;10411996;28;20062;-66
2023/07/27 13:42:04;;;;;;;2.13;0.80;;;;;;;20.09;100.00;100172.97;10458873;28;20154;-64
2023/07/27 13:47:05;;;;;;;0.57;0.50;;;;;;;19.55;100.00;100112.88;10453102;28;20083;-66
2023/07/27 13:52:05;;;;;;;0.50;0.50;;;;;;;19.90;100.00;100184.53;10445090;28;20075;-66
2023/07/27 13:57:06;;;;;;;0.60;0.57;;;;;;;19.42;100.00;100180.88;10465342;28;20049;-66
2023/07/27 14:02:06;;;;;;;0.90;0.77;;;;;;;19.60;100.00;100184.44;10461186;28;20041;-65
2023/07/27 14:07:07;;;;;;;2.30;1.05;;;;;;;19.66;100.00;100179.53;10450137;28;20400;-65
2023/07/27 14:12:08;;;;;;;0.80;0.63;;;;;;;19.99;100.00;100173.34;10469262;28;20036;-66
2023/07/27 14:17:08;;;;;;;1.02;0.57;;;;;;;20.14;100.00;100164.41;10415337;28;20045;-66
2023/07/27 14:22:10;;;;;;;1.10;0.50;;;;;;;20.34;100.00;100174.81;10367537;28;20030;-66
2023/07/27 14:27:10;;;;;;;1.05;0.40;;;;;;;20.80;100.00;100166.66;10410035;28;20037;-65
2023/07/27 14:32:11;;;;;;;0.75;0.60;;;;;;;21.09;100.00;100151.75;10431169;28;20795;-66
2023/07/27 14:37:11;;;;;;;0.47;0.40;;;;;;;21.15;100.00;100158.78;10392495;28;20049;-65
2023/07/27 14:42:12;;;;;;;0.52;0.43;;;;;;;21.03;100.00;100167.13;10437045;28;20049;-66
2023/07/27 14:47:12;;;;;;;0.40;0.40;;;;;;;20.38;100.00;100160.16;10415033;28;20084;-66
2023/07/27 14:52:13;;;;;;;0.98;0.60;;;;;;;20.20;100.00;100154.69;10396905;28;20048;-65
2023/07/27 14:57:13;;;;;;;0.90;0.55;;;;;;;19.94;100.00;100158.41;10398195;28;20052;-65
2023/07/27 15:02:13;;;;;;;0.88;0.68;;;;;;;19.73;100.00;100160.28;10405402;28;20076;-65
2023/07/27 15:07:14;;;;;;;0.93;0.80;;;;;;;19.55;100.00;100154.75;10413105;28;20083;-66
2023/07/27 15:12:14;;;;;;;0.93;0.80;;;;;;;19.45;100.00;100163.47;10421435;28;20472;-66
2023/07/27 15:17:15;;;;;;;0.82;0.73;;;;;;;19.43;100.00;100160.19;10428084;28;20389;-66
2023/07/27 15:22:15;;;;;;;0.98;0.70;;;;;;;19.47;100.00;100146.38;10415234;28;20037;-65
2023/07/27 15:27:16;;;;;;;0.68;0.60;;;;;;;19.53;100.00;100143.09;10434222;28;20065;-65
2023/07/27 15:32:16;;;;;;;1.27;0.80;;;;;;;19.69;100.00;100143.34;10443214;28;20044;-66
2023/07/27 15:37:17;;;;;;;1.42;0.80;;;;;;;19.60;100.00;100144.56;10445064;28;20033;-65
2023/07/27 15:42:17;;;;;;;0.90;0.77;;;;;;;19.43;100.00;100139.81;10446079;28;20067;-65
2023/07/27 15:47:18;;;;;;;0.80;0.70;;;;;;;19.49;100.00;100132.91;10450349;28;20491;-65
2023/07/27 15:52:18;;;;;;;0.57;0.50;;;;;;;19.58;100.00;100127.31;10479118;28;20398;-65
2023/07/27 15:57:19;;;;;;;0.30;0.30;;;;;;;19.52;100.00;100116.31;10463994;28;20068;-66
2023/07/27 16:02:19;;;;;;;0.50;0.50;;;;;;;19.47;100.00;100132.41;10460746;28;20047;-66
2023/07/27 16:07:20;;;;;;;0.68;0.50;;;;;;;19.38;100.00;100120.47;10480137;28;20047;-66
2023/07/27 16:12:20;;;;;;;1.08;0.68;;;;;;;19.41;100.00;100117.81;10416850;28;20040;-68
2023/07/27 16:17:22;;;;;;;0.60;0.50;;;;;;;19.53;100.00;100129.13;10429398;28;20137;-68
2023/07/27 16:22:22;;;;;;;0.40;0.30;;;;;;;19.59;100.00;100129.75;10447337;28;20488;-65
2023/07/27 16:27:24;;;;;;;0.60;0.50;;;;;;;19.53;100.00;100115.16;10458110;28;20090;-64
2023/07/27 16:32:24;;;;;;;0.55;0.50;;;;;;;19.52;100.00;100121.88;10467622;28;20029;-65
2023/07/27 16:37:25;;;;;;;0.40;0.30;;;;;;;19.36;100.00;100120.78;10464042;28;20036;-67
2023/07/27 16:42:26;;;;;;;1.08;0.50;;;;;;;19.12;100.00;100113.78;10464604;28;20063;-67
2023/07/27 16:47:26;;;;;;;1.95;0.40;;;;;;;18.92;100.00;100114.47;10480491;28;20085;-66
2023/07/27 16:52:27;;;;;;;0.45;0.30;;;;;;;18.86;100.00;100111.00;10465348;28;20048;-66
2023/07/27 16:57:27;;;;;;;2.15;0.50;;;;;;;18.76;100.00;100109.31;10464208;28;20033;-66
2023/07/27 17:02:28;;;;;;;1.25;0.40;;;;;;;18.63;100.00;100106.72;10425322;28;20096;-66
2023/07/27 17:07:28;;;;;;;1.13;0.40;;;;;;;18.41;100.00;100116.03;10443673;28;20059;-67
2023/07/27 17:12:30;;;;;;;0.98;0.50;;;;;;;18.23;100.00;100106.81;10475036;28;20570;-66
2023/07/27 17:17:31;;;;;;;0.70;0.32;;;;;;;18.21;100.00;100106.31;10462808;28;20098;-67
2023/07/27 17:22:31;;;;;;;1.02;0.57;;;;;;;18.17;100.00;100100.59;10467155;28;20064;-67
2023/07/27 17:27:32;;;;;;;2.17;0.80;;;;;;;18.20;100.00;100102.72;10440977;28;20401;-68
2023/07/27 17:32:32;;;;;;;0.63;0.43;;;;;;;18.20;100.00;100111.06;10442332;28;20040;-67
2023/07/27 17:37:32;;;;;;;0.93;0.50;;;;;;;18.15;100.00;100106.47;10476241;28;20110;-67
2023/07/27 17:42:33;;;;;;;1.77;0.40;;;;;;;18.21;100.00;100109.94;10432313;28;20033;-67
2023/07/27 17:47:33;;;;;;;2.50;0.60;;;;;;;18.22;100.00;100114.38;10445268;28;20067;-68
2023/07/27 17:52:34;;;;;;;1.65;0.63;;;;;;;18.12;100.00;100107.13;10443010;28;20622;-67
2023/07/27 17:57:36;;;;;;;1.77;0.47;;;;;;;17.95;100.00;100099.53;10454131;28;20044;-67
2023/07/27 18:02:36;;;;;;;0.65;0.40;;;;;;;17.92;100.00;100121.63;10461092;28;20036;-67
2023/07/27 18:07:37;;;;;;;0.68;0.47;;;;;;;17.86;100.00;100129.34;10459049;28;20037;-67
2023/07/27 18:12:37;;;;;;;0.98;0.60;;;;;;;17.81;100.00;100126.66;10442428;28;20044;-68
2023/07/27 18:17:37;;;;;;;0.70;0.70;;;;;;;17.73;100.00;100105.16;10477391;28;20069;-69
2023/07/27 18:22:38;;;;;;;1.20;0.90;;;;;;;17.78;100.00;100121.72;10445766;28;20048;-68
2023/07/27 18:27:38;;;;;;;1.20;0.90;;;;;;;17.73;100.00;100102.38;10461275;28;20102;-69
2023/07/27 18:32:39;;;;;;;1.98;0.98;;;;;;;17.82;100.00;100114.38;10425873;28;20041;-69
2023/07/27 18:37:39;;;;;;;1.83;0.90;;;;;;;17.81;100.00;100120.25;10459824;28;20052;-69
2023/07/27 18:42:40;;;;;;;2.22;1.40;;;;;;;17.79;100.00;100126.16;10464335;28;20047;-66
2023/07/27 18:47:40;;;;;;;3.80;2.25;;;;;;;17.76;100.00;100124.03;10441782;28;20500;-68
2023/07/27 18:52:41;;;;;;;9.73;3.28;;;;;;;17.71;100.00;100126.94;10477615;28;20040;-69
2023/07/27 18:57:41;;;;;;;9.13;3.33;;;;;;;17.64;100.00;100112.66;10475534;28;20036;-69
2023/07/27 19:02:42;;;;;;;10.20;4.35;;;;;;;17.69;100.00;100118.91;10457743;28;20120;-69
2023/07/27 19:07:42;;;;;;;9.38;4.38;;;;;;;17.68;100.00;100110.88;10450840;28;20041;-70
2023/07/27 19:12:43;;;;;;;6.05;3.28;;;;;;;17.67;100.00;100114.78;10457207;28;20035;-68
2023/07/27 19:17:43;;;;;;;9.73;3.55;;;;;;;17.60;100.00;100108.88;10445512;28;20405;-69
2023/07/27 19:22:44;;;;;;;9.05;3.63;;;;;;;17.57;100.00;100117.84;10447660;28;20041;-69
2023/07/27 19:27:45;;;;;;;8.77;4.78;;;;;;;17.55;100.00;100115.41;10457800;28;20029;-69
2023/07/27 19:32:47;;;;;;;11.07;5.00;;;;;;;17.55;100.00;100116.22;10473465;28;20041;-69
2023/07/27 19:37:47;;;;;;;12.27;4.30;;;;;;;17.49;100.00;100100.81;10441771;28;20251;-69
2023/07/27 19:42:48;;;;;;;8.73;4.55;;;;;;;17.55;100.00;100107.06;10461613;28;20044;-70
2023/07/27 19:47:48;;;;;;;21.35;6.60;;;;;;;17.50;100.00;100105.22;10454195;28;20033;-69
2023/07/27 19:52:49;;;;;;;14.02;5.97;;;;;;;17.54;100.00;100109.00;10415107;28;20056;-68
2023/07/27 19:57:50;;;;;;;15.85;6.95;;;;;;;17.54;100.00;100106.22;10439668;28;20044;-69
2023/07/27 20:02:52;;;;;;;20.70;8.93;;;;;;;17.53;100.00;100115.72;10471800;28;20049;-70
2023/07/27 20:07:52;;;;;;;19.58;10.10;;;;;;;17.52;100.00;100119.63;10407262;28;20041;-69
2023/07/27 20:12:53;;;;;;;14.55;9.27;;;;;;;17.48;100.00;100123.38;10438756;28;20326;-69
2023/07/27 20:17:54;;;;;;;23.02;9.82;;;;;;;17.51;100.00;100131.91;10462544;28;20096;-69
2023/07/27 20:22:54;;;;;;;14.25;6.03;;;;;;;17.47;100.00;100119.78;10474294;28;20041;-69
2023/07/27 20:27:55;;;;;;;10.23;5.75;;;;;;;17.19;100.00;100082.13;10450019;28;20037;-69
2023/07/27 20:32:56;;;;;;;9.35;4.50;;;;;;;17.48;100.00;100131.72;10413368;28;20044;-69
2023/07/27 20:37:57;;;;;;;9.38;3.83;;;;;;;17.44;100.00;100134.31;10475836;28;20036;-69
2023/07/27 20:42:58;;;;;;;9.25;3.58;;;;;;;17.12;100.00;100086.19;10455229;28;20456;-69
2023/07/27 20:47:58;;;;;;;3.72;2.63;;;;;;;17.38;100.00;100126.44;10433655;28;20095;-69
2023/07/27 20:53:00;;;;;;;4.88;3.15;;;;;;;17.40;100.00;100154.75;10461237;28;20067;-68
2023/07/27 20:58:01;;;;;;;7.45;3.53;;;;;;;17.36;100.00;100135.09;10461719;28;20044;-68
2023/07/27 21:03:01;;;;;;;7.03;3.65;;;;;;;17.29;100.00;100137.50;10481001;28;20041;-66
2023/07/27 21:08:02;;;;;;;7.93;4.40;;;;;;;17.22;100.00;100132.41;10426148;28;20059;-68
2023/07/27 21:13:02;;;;;;;10.38;4.85;;;;;;;17.24;100.00;100132.06;10468345;28;20075;-68
2023/07/27 21:18:03;;;;;;;14.02;6.25;;;;;;;17.15;100.00;100124.47;10426907;28;20052;-69
2023/07/27 21:23:03;;;;;;;13.55;5.75;;;;;;;17.23;100.00;100149.91;10463019;28;20033;-67
2023/07/27 21:28:04;;;;;;;18.88;7.95;;;;;;;17.10;100.00;100124.63;10446729;28;20056;-68
2023/07/27 21:33:05;;;;;;;18.98;7.07;;;;;;;17.20;100.00;100137.47;10467542;28;20041;-68
2023/07/27 21:38:05;;;;;;;16.73;7.20;;;;;;;17.17;100.00;100137.25;10444385;28;20062;-68
2023/07/27 21:43:06;;;;;;;16.15;7.10;;;;;;;17.17;100.00;100145.59;10449678;28;20066;-68
2023/07/27 21:48:08;;;;;;;19.40;8.30;;;;;;;17.16;100.00;100144.78;10450203;28;20052;-67
2023/07/27 21:53:08;;;;;;;19.58;10.23;;;;;;;17.19;100.00;100146.94;10441842;28;20033;-68
2023/07/27 21:58:09;;;;;;;21.35;11.43;;;;;;;17.22;100.00;100151.03;10445730;28;20067;-68
2023/07/27 22:03:11;;;;;;;28.95;13.63;;;;;;;17.21;100.00;100153.00;10367622;28;20089;-68
2023/07/27 22:08:11;;;;;;;26.50;12.35;;;;;;;17.14;100.00;100139.53;10389631;28;20041;-68
2023/07/27 22:13:12;;;;;;;24.65;11.77;;;;;;;17.21;100.00;100157.75;10389813;28;20065;-69
2023/07/27 22:18:13;;;;;;;26.63;12.60;;;;;;;17.21;100.00;100163.31;10419479;28;20049;-67
2023/07/27 22:23:14;;;;;;;30.10;12.63;;;;;;;17.21;100.00;100160.53;10418495;28;20599;-67
2023/07/27 22:28:14;;;;;;;35.28;11.45;;;;;;;17.21;100.00;100157.75;10391357;28;20067;-68
2023/07/27 22:33:16;;;;;;;30.40;12.02;;;;;;;17.22;100.00;100168.56;10400815;28;20046;-69
2023/07/27 22:38:17;;;;;;;30.00;11.35;;;;;;;17.22;100.00;100162.16;10382939;28;20080;-68